Time;durP1;ratioP1;P1;durP2;ratioP2;P2;SDS_P1;SDS_P2;PMS_P1;PMS_P2;Temp;Humidity;BMP_temperature;BMP_pressure;BME280_temperature;BME280_humidity;BME280_pressure;Samples;Min_cycle;Max_cycle;Signal;HPM_P1;HPM_P2
2022/10/31 00:01:34;;;;;;;17.13;15.20;;;14.10;99.90;;;;;;5052593;28;20076;-63
2022/10/31 00:04:00;;;;;;;19.52;15.23;;;14.00;99.90;;;;;;5053030;28;20021;-63
2022/10/31 00:06:26;;;;;;;14.60;12.93;;;14.00;99.90;;;;;;5056829;28;20032;-62
2022/10/31 00:08:53;;;;;;;13.65;11.45;;;14.00;99.90;;;;;;5056890;28;20100;-63
2022/10/31 00:11:19;;;;;;;15.60;13.70;;;14.00;99.90;;;;;;5057077;28;20390;-62
2022/10/31 00:13:45;;;;;;;19.27;15.32;;;14.00;99.90;;;;;;5056874;28;20104;-63
2022/10/31 00:16:22;;;;;;;16.38;13.93;;;14.00;99.90;;;;;;5056578;28;20025;-63
2022/10/31 00:18:49;;;;;;;18.08;13.90;;;14.00;99.90;;;;;;5057082;28;20029;-63
2022/10/31 00:21:15;;;;;;;15.57;13.80;;;14.00;99.90;;;;;;5056509;28;20025;-62
2022/10/31 00:23:40;;;;;;;18.33;14.57;;;14.00;99.90;;;;;;5056655;28;20028;-63
2022/10/31 00:26:06;;;;;;;16.58;13.82;;;14.00;99.90;;;;;;5056946;28;20100;-63
2022/10/31 00:28:33;;;;;;;16.80;13.90;;;13.90;99.90;;;;;;5056677;28;20468;-63
2022/10/31 00:31:00;;;;;;;17.05;15.13;;;13.90;99.90;;;;;;5056135;28;20186;-63
2022/10/31 00:33:27;;;;;;;17.08;14.23;;;13.80;99.90;;;;;;5056538;28;20106;-63
2022/10/31 00:35:52;;;;;;;17.42;14.35;;;13.80;99.90;;;;;;5056522;28;20013;-62
2022/10/31 00:38:18;;;;;;;17.75;14.40;;;13.90;99.90;;;;;;5056290;28;20028;-63
2022/10/31 00:40:44;;;;;;;22.67;19.02;;;13.80;99.90;;;;;;5056402;28;20098;-63
2022/10/31 00:43:09;;;;;;;21.17;17.42;;;13.80;99.90;;;;;;5056396;28;20071;-63
2022/10/31 00:45:35;;;;;;;17.88;14.73;;;13.70;99.90;;;;;;5055981;28;20021;-62
2022/10/31 00:48:00;;;;;;;20.15;15.80;;;13.70;99.90;;;;;;5056498;28;20029;-63
2022/10/31 00:50:26;;;;;;;23.85;19.38;;;13.70;99.90;;;;;;5056177;28;20020;-63
2022/10/31 00:52:52;;;;;;;20.50;17.15;;;13.60;99.90;;;;;;5056147;28;20021;-62
2022/10/31 00:55:17;;;;;;;24.45;18.70;;;13.60;99.90;;;;;;5056222;28;20530;-63
2022/10/31 00:57:47;;;;;;;20.23;16.52;;;13.50;99.90;;;;;;5056093;28;20028;-62
2022/10/31 01:00:13;;;;;;;20.17;15.73;;;13.50;99.90;;;;;;5055856;28;20387;-62
2022/10/31 01:02:39;;;;;;;18.63;15.77;;;13.50;99.90;;;;;;5056172;28;20104;-63
2022/10/31 01:05:05;;;;;;;18.58;15.13;;;13.50;99.90;;;;;;5055892;28;20100;-63
2022/10/31 01:07:31;;;;;;;18.10;14.63;;;13.50;99.90;;;;;;5055893;28;20467;-63
2022/10/31 01:09:56;;;;;;;16.80;13.63;;;13.50;99.90;;;;;;5056103;28;20083;-63
2022/10/31 01:12:22;;;;;;;16.27;13.63;;;13.50;99.90;;;;;;5055813;28;20504;-63
2022/10/31 01:14:48;;;;;;;14.98;12.30;;;13.50;99.90;;;;;;5055604;28;20026;-63
2022/10/31 01:17:14;;;;;;;17.48;13.68;;;13.50;99.90;;;;;;5054726;28;20036;-62
2022/10/31 01:19:40;;;;;;;15.38;12.10;;;13.50;99.90;;;;;;5055897;28;20029;-63
2022/10/31 01:22:06;;;;;;;17.88;14.55;;;13.40;99.90;;;;;;5055854;28;20021;-63
2022/10/31 01:24:32;;;;;;;19.05;15.13;;;13.40;99.90;;;;;;5055768;28;20460;-62
2022/10/31 01:26:58;;;;;;;16.67;13.75;;;13.40;99.90;;;;;;5055513;28;20025;-63
2022/10/31 01:29:23;;;;;;;14.88;11.88;;;13.30;99.90;;;;;;5055472;28;20270;-62
2022/10/31 01:31:49;;;;;;;14.30;11.55;;;13.20;99.90;;;;;;5055347;28;20056;-63
2022/10/31 01:34:16;;;;;;;11.95;10.05;;;13.20;99.90;;;;;;5055479;28;20021;-62
2022/10/31 01:36:43;;;;;;;13.05;10.68;;;13.30;99.90;;;;;;5055357;28;20048;-63
2022/10/31 01:39:14;;;;;;;10.77;9.05;;;13.20;99.90;;;;;;5055219;28;20459;-62
2022/10/31 01:41:42;;;;;;;9.45;8.45;;;13.30;99.90;;;;;;5055318;28;20029;-62
2022/10/31 01:44:14;;;;;;;10.43;9.25;;;13.20;99.90;;;;;;5055285;28;20025;-63
2022/10/31 01:46:46;;;;;;;12.10;10.82;;;13.20;99.90;;;;;;5055064;28;20017;-63
2022/10/31 01:49:17;;;;;;;14.15;11.70;;;13.20;99.90;;;;;;5055217;28;20104;-63
2022/10/31 01:51:50;;;;;;;15.52;11.98;;;13.10;99.90;;;;;;5055050;28;20100;-63
2022/10/31 01:54:20;;;;;;;12.20;10.45;;;13.00;99.90;;;;;;5055150;28;20109;-63
2022/10/31 01:56:50;;;;;;;10.93;8.93;;;12.90;99.90;;;;;;5055050;28;20036;-62
2022/10/31 01:59:19;;;;;;;16.65;13.32;;;13.00;99.90;;;;;;5054615;28;20020;-63
2022/10/31 02:01:46;;;;;;;12.13;10.55;;;12.90;99.90;;;;;;5054780;28;20082;-63
2022/10/31 02:04:12;;;;;;;17.92;13.77;;;12.90;99.90;;;;;;5055115;28;20116;-63
2022/10/31 02:06:49;;;;;;;12.60;11.27;;;12.90;99.90;;;;;;5054667;28;20106;-62
2022/10/31 02:09:16;;;;;;;15.25;11.80;;;12.80;99.90;;;;;;5054803;28;20029;-63
2022/10/31 02:11:43;;;;;;;13.23;11.05;;;12.90;99.90;;;;;;5054730;28;20021;-63
2022/10/31 02:14:09;;;;;;;16.30;12.60;;;12.90;99.90;;;;;;5054454;28;20479;-63
2022/10/31 02:16:35;;;;;;;14.27;12.07;;;12.90;99.90;;;;;;5054764;28;20024;-62
2022/10/31 02:19:02;;;;;;;21.23;15.30;;;12.90;99.90;;;;;;5054493;28;20021;-62
2022/10/31 02:21:30;;;;;;;17.08;13.68;;;12.80;99.90;;;;;;5054326;28;20471;-63
2022/10/31 02:24:24;;;;;;;14.07;11.32;;;12.80;99.90;;;;;;5054485;28;20025;-63
2022/10/31 02:26:54;;;;;;;15.07;11.77;;;12.80;99.90;;;;;;5054168;28;20020;-63
2022/10/31 02:29:25;;;;;;;16.15;12.23;;;12.80;99.90;;;;;;5054388;28;20301;-63
2022/10/31 02:32:15;;;;;;;20.00;15.52;;;12.80;99.90;;;;;;5054231;28;20032;-63
2022/10/31 02:34:49;;;;;;;17.55;12.82;;;12.80;99.90;;;;;;5054288;28;20096;-62
2022/10/31 02:37:37;;;;;;;12.45;11.13;;;12.60;99.90;;;;;;5054035;28;20032;-63
2022/10/31 02:40:30;;;;;;;13.60;12.05;;;12.60;99.90;;;;;;5054064;28;20131;-62
2022/10/31 02:43:26;;;;;;;15.27;12.73;;;12.60;99.90;;;;;;5053942;28;20091;-62
2022/10/31 02:46:04;;;;;;;22.63;16.30;;;12.70;99.90;;;;;;5054035;28;20032;-63
2022/10/31 02:48:35;;;;;;;20.25;16.40;;;12.70;99.90;;;;;;5054006;28;20044;-63
2022/10/31 02:51:02;;;;;;;18.55;14.27;;;12.50;99.90;;;;;;5054074;28;20033;-62
2022/10/31 02:53:33;;;;;;;15.18;13.15;;;12.50;99.90;;;;;;5054134;28;20116;-63
2022/10/31 02:56:05;;;;;;;15.45;12.40;;;12.50;99.90;;;;;;5053585;28;20100;-62
2022/10/31 02:58:36;;;;;;;15.52;12.10;;;12.60;99.90;;;;;;5054050;28;20060;-63
2022/10/31 03:01:18;;;;;;;13.85;11.48;;;12.60;99.90;;;;;;5053626;28;20124;-63
2022/10/31 03:04:04;;;;;;;14.15;10.98;;;12.60;99.90;;;;;;5053980;28;20032;-63
2022/10/31 03:06:56;;;;;;;14.48;11.93;;;12.60;99.90;;;;;;5053625;28;20476;-63
2022/10/31 03:09:45;;;;;;;12.98;10.77;;;12.60;99.90;;;;;;5053574;28;20017;-62
2022/10/31 03:12:28;;;;;;;12.90;10.95;;;12.60;99.90;;;;;;5053409;28;20483;-63
2022/10/31 03:14:54;;;;;;;10.70;9.23;;;12.50;99.90;;;;;;5053488;28;20037;-63
2022/10/31 03:17:33;;;;;;;14.23;10.15;;;12.50;99.90;;;;;;5053641;28;20571;-63
2022/10/31 03:20:00;;;;;;;12.05;9.45;;;12.50;99.90;;;;;;5053450;28;20541;-63
2022/10/31 03:22:30;;;;;;;10.80;9.23;;;12.50;99.90;;;;;;5053360;28;20025;-62
2022/10/31 03:24:57;;;;;;;11.23;8.88;;;12.50;99.90;;;;;;5053270;28;20475;-63
2022/10/31 03:27:28;;;;;;;12.30;9.65;;;12.50;99.90;;;;;;5053425;28;20017;-63
2022/10/31 03:30:00;;;;;;;12.63;9.65;;;12.50;99.90;;;;;;5053039;28;20048;-62
2022/10/31 03:32:31;;;;;;;12.63;9.38;;;12.40;99.90;;;;;;5053325;28;20025;-63
2022/10/31 03:35:00;;;;;;;11.35;8.63;;;12.50;99.90;;;;;;5053448;28;20428;-63
2022/10/31 03:37:29;;;;;;;9.70;7.88;;;12.40;99.90;;;;;;5053322;28;20078;-63
2022/10/31 03:39:56;;;;;;;7.60;6.88;;;12.40;99.90;;;;;;5052473;28;20029;-62
2022/10/31 03:42:25;;;;;;;7.68;6.78;;;12.40;99.90;;;;;;5053155;28;20017;-62
2022/10/31 03:45:07;;;;;;;8.90;8.00;;;12.40;99.90;;;;;;5053441;28;20021;-62
2022/10/31 03:47:36;;;;;;;7.55;6.78;;;12.30;99.90;;;;;;5053254;28;20029;-62
2022/10/31 03:50:04;;;;;;;11.18;7.93;;;12.30;99.90;;;;;;5053403;28;20437;-62
2022/10/31 03:52:38;;;;;;;10.98;7.97;;;12.30;99.90;;;;;;5053042;28;20063;-62
2022/10/31 03:55:31;;;;;;;8.52;7.20;;;12.30;99.90;;;;;;5052715;28;20037;-62
2022/10/31 03:58:10;;;;;;;7.93;6.97;;;12.30;99.90;;;;;;5050079;28;20025;-62
2022/10/31 04:00:40;;;;;;;9.55;7.78;;;12.20;99.90;;;;;;5052789;28;20071;-62
2022/10/31 04:03:09;;;;;;;11.15;9.15;;;12.20;99.90;;;;;;5053008;28;20036;-62
2022/10/31 04:05:36;;;;;;;14.23;10.60;;;12.20;99.90;;;;;;5052845;28;20028;-62
2022/10/31 04:08:05;;;;;;;14.60;11.02;;;12.20;99.90;;;;;;5052827;28;20021;-62
2022/10/31 04:10:33;;;;;;;13.45;9.40;;;12.10;99.90;;;;;;5053018;28;20033;-62
2022/10/31 04:13:03;;;;;;;10.75;8.80;;;12.00;99.90;;;;;;5052848;28;20032;-62
2022/10/31 04:15:31;;;;;;;17.92;12.38;;;12.00;99.90;;;;;;5053067;28;20013;-62
2022/10/31 04:17:59;;;;;;;13.88;10.82;;;12.00;99.90;;;;;;5052908;28;20025;-62
2022/10/31 04:20:33;;;;;;;14.75;10.35;;;11.90;99.90;;;;;;5052654;28;20143;-62
2022/10/31 04:23:00;;;;;;;12.05;9.43;;;11.90;99.90;;;;;;5052563;28;20025;-62
2022/10/31 04:25:25;;;;;;;14.00;9.95;;;11.90;99.90;;;;;;5052623;28;20021;-62
2022/10/31 04:27:51;;;;;;;12.93;10.85;;;11.90;99.90;;;;;;5053064;28;20031;-62
2022/10/31 04:30:16;;;;;;;10.10;8.52;;;11.90;99.90;;;;;;5052627;28;20045;-62
2022/10/31 04:32:42;;;;;;;12.23;9.38;;;11.90;99.90;;;;;;5052938;28;20490;-62
2022/10/31 04:35:08;;;;;;;9.63;8.55;;;11.90;99.90;;;;;;5052839;28;20436;-63
2022/10/31 04:37:33;;;;;;;11.43;9.32;;;11.90;99.90;;;;;;5052439;28;20056;-62
2022/10/31 04:39:59;;;;;;;11.77;9.38;;;11.90;99.90;;;;;;5052497;28;20025;-62
2022/10/31 04:42:25;;;;;;;10.77;9.00;;;11.90;99.90;;;;;;5052523;28;20028;-62
2022/10/31 04:44:50;;;;;;;10.23;8.05;;;11.80;99.90;;;;;;5052818;28;20111;-62
2022/10/31 04:47:16;;;;;;;9.02;7.95;;;11.80;99.90;;;;;;5052570;28;20029;-62
2022/10/31 04:49:41;;;;;;;11.27;8.90;;;11.80;99.90;;;;;;5052405;28;20380;-62
2022/10/31 04:52:07;;;;;;;10.90;8.40;;;11.80;99.90;;;;;;5053992;28;20025;-62
2022/10/31 04:54:33;;;;;;;9.45;8.02;;;11.80;99.90;;;;;;5056274;28;20066;-62
2022/10/31 04:56:59;;;;;;;9.18;7.60;;;11.80;99.90;;;;;;5056342;28;20146;-62
2022/10/31 04:59:24;;;;;;;11.30;8.82;;;11.80;99.90;;;;;;5071444;28;20373;-62
2022/10/31 05:01:50;;;;;;;11.95;9.95;;;11.80;99.90;;;;;;5056032;28;20052;-62
2022/10/31 05:04:16;;;;;;;14.70;11.13;;;11.80;99.90;;;;;;5055961;28;20055;-62
2022/10/31 05:06:41;;;;;;;11.85;9.70;;;11.80;99.90;;;;;;5055677;28;20376;-62
2022/10/31 05:09:07;;;;;;;10.15;8.95;;;11.70;99.90;;;;;;5056008;28;20359;-62
2022/10/31 05:11:32;;;;;;;9.48;7.93;;;11.70;99.90;;;;;;5055802;28;20017;-62
2022/10/31 05:13:58;;;;;;;9.57;7.68;;;11.70;99.90;;;;;;5055686;28;20104;-62
2022/10/31 05:16:24;;;;;;;13.02;8.95;;;11.70;99.90;;;;;;5055988;28;20032;-62
2022/10/31 05:18:49;;;;;;;12.57;9.52;;;11.70;99.90;;;;;;5055750;28;20043;-61
2022/10/31 05:21:15;;;;;;;12.75;9.30;;;11.70;99.90;;;;;;5055552;28;20083;-63
2022/10/31 05:23:40;;;;;;;12.35;9.60;;;11.70;99.90;;;;;;5055529;28;20025;-62
2022/10/31 05:26:06;;;;;;;13.00;9.50;;;11.70;99.90;;;;;;5055580;28;20025;-62
2022/10/31 05:28:32;;;;;;;21.17;10.52;;;11.70;99.90;;;;;;5055799;28;20116;-62
2022/10/31 05:30:57;;;;;;;12.15;9.68;;;11.70;99.90;;;;;;5055295;28;20049;-62
2022/10/31 05:33:23;;;;;;;12.48;10.13;;;11.80;99.90;;;;;;5055437;28;20021;-62
2022/10/31 05:35:49;;;;;;;13.80;10.15;;;11.70;99.90;;;;;;5055234;28;20364;-62
2022/10/31 05:38:14;;;;;;;12.20;9.93;;;11.70;99.90;;;;;;5055276;28;20498;-62
2022/10/31 05:40:40;;;;;;;17.85;12.32;;;11.70;99.90;;;;;;5055734;28;20472;-62
2022/10/31 05:43:05;;;;;;;23.88;18.90;;;11.80;99.90;;;;;;5055516;28;20021;-62
2022/10/31 05:45:31;;;;;;;24.85;16.98;;;11.70;99.90;;;;;;5055105;28;20096;-62
2022/10/31 05:47:59;;;;;;;27.15;20.10;;;11.70;99.90;;;;;;5055442;28;20021;-62
2022/10/31 05:50:27;;;;;;;39.20;29.58;;;11.70;99.90;;;;;;5054739;28;20037;-62
2022/10/31 05:53:02;;;;;;;27.45;21.58;;;11.80;99.90;;;;;;5054805;28;20025;-61
2022/10/31 05:55:28;;;;;;;27.67;22.08;;;11.70;99.90;;;;;;5053798;28;20028;-62
2022/10/31 05:57:55;;;;;;;27.33;22.35;;;11.80;99.90;;;;;;5054707;28;20100;-63
2022/10/31 06:00:21;;;;;;;26.23;21.73;;;11.80;99.90;;;;;;5052809;28;20033;-63
2022/10/31 06:06:09;;;;;;;77.75;57.72;;;11.80;99.90;;;;;;5054483;28;20028;-63
2022/10/31 06:08:36;;;;;;;86.30;65.80;;;11.90;99.90;;;;;;5053309;28;20025;-63
2022/10/31 06:11:01;;;;;;;106.45;78.88;;;11.90;99.90;;;;;;5054137;28;20021;-62
2022/10/31 06:13:27;;;;;;;167.85;117.57;;;11.90;99.90;;;;;;5054674;28;20028;-64
2022/10/31 06:15:53;;;;;;;146.77;105.28;;;11.80;99.90;;;;;;5054467;28;20059;-64
2022/10/31 06:18:18;;;;;;;112.97;85.93;;;11.80;99.90;;;;;;5054119;28;20025;-63
2022/10/31 06:20:44;;;;;;;103.00;74.95;;;11.80;99.90;;;;;;5053805;28;20036;-63
2022/10/31 06:23:10;;;;;;;156.57;96.82;;;11.90;99.90;;;;;;5054304;28;20104;-63
2022/10/31 06:25:35;;;;;;;85.28;59.88;;;11.90;99.90;;;;;;5053877;28;20452;-63
2022/10/31 06:28:01;;;;;;;64.20;48.67;;;11.80;99.90;;;;;;5054546;28;20102;-63
2022/10/31 06:30:27;;;;;;;62.25;46.60;;;11.90;99.90;;;;;;5052842;28;20052;-64
2022/10/31 06:32:52;;;;;;;59.28;44.05;;;12.00;99.90;;;;;;5053956;28;20071;-63
2022/10/31 06:35:18;;;;;;;48.95;37.97;;;12.10;99.90;;;;;;5053680;28;20025;-63
2022/10/31 06:37:51;;;;;;;53.55;38.17;;;12.30;99.90;;;;;;5053191;28;20083;-63
2022/10/31 06:40:17;;;;;;;50.45;35.92;;;12.40;99.90;;;;;;5051765;28;20029;-64
2022/10/31 06:42:42;;;;;;;46.20;34.47;;;12.50;99.90;;;;;;5052078;28;20048;-63
2022/10/31 06:45:08;;;;;;;46.40;34.92;;;12.50;99.90;;;;;;5052453;28;20464;-64
2022/10/31 06:47:34;;;;;;;52.53;36.47;;;12.60;99.90;;;;;;5052345;28;20021;-63
2022/10/31 06:49:59;;;;;;;50.70;35.15;;;12.60;99.90;;;;;;5051415;28;20025;-64
2022/10/31 06:52:25;;;;;;;45.25;31.30;;;12.70;99.90;;;;;;5051252;28;20071;-64
2022/10/31 06:54:50;;;;;;;51.33;37.63;;;12.80;99.90;;;;;;5048907;28;20431;-64
2022/10/31 06:57:16;;;;;;;63.40;43.72;;;12.90;99.90;;;;;;5048486;28;20510;-64
2022/10/31 06:59:42;;;;;;;89.07;55.97;;;12.90;99.90;;;;;;5051809;28;20467;-64
2022/10/31 07:02:10;;;;;;;69.43;47.45;;;12.90;99.90;;;;;;5053081;28;20021;-64
2022/10/31 07:04:36;;;;;;;61.92;43.47;;;13.40;99.90;;;;;;5053579;28;20109;-64
2022/10/31 07:07:01;;;;;;;55.58;40.50;;;15.30;99.90;;;;;;5053314;28;20107;-64
2022/10/31 07:09:27;;;;;;;55.15;40.50;;;17.40;97.10;;;;;;5053274;28;20082;-65
2022/10/31 07:11:53;;;;;;;47.25;37.08;;;19.10;76.60;;;;;;5052341;28;20066;-64
2022/10/31 07:14:19;;;;;;;39.17;30.35;;;20.10;71.00;;;;;;5050058;28;20033;-64
2022/10/31 07:16:50;;;;;;;36.85;30.17;;;21.10;63.50;;;;;;5049822;28;20104;-63
2022/10/31 07:19:16;;;;;;;33.80;27.65;;;21.70;59.30;;;;;;5051347;28;20036;-64
2022/10/31 07:21:41;;;;;;;29.17;25.27;;;22.30;58.50;;;;;;5049570;28;20430;-64
2022/10/31 07:24:07;;;;;;;39.97;28.45;;;23.10;58.00;;;;;;5045009;28;20510;-64
2022/10/31 07:26:33;;;;;;;45.85;34.80;;;23.90;53.20;;;;;;5050570;28;20036;-65
2022/10/31 07:28:59;;;;;;;43.20;34.58;;;24.20;52.20;;;;;;5051185;28;20399;-66
2022/10/31 07:31:25;;;;;;;43.95;34.95;;;24.00;52.20;;;;;;5051435;28;20029;-64
2022/10/31 07:33:51;;;;;;;41.58;33.20;;;24.20;52.20;;;;;;5050683;28;20057;-65
2022/10/31 07:36:17;;;;;;;41.92;32.15;;;24.40;51.70;;;;;;5052716;28;20103;-64
2022/10/31 07:38:42;;;;;;;35.65;29.75;;;24.60;51.40;;;;;;5050877;28;20021;-64
2022/10/31 07:41:09;;;;;;;34.50;27.58;;;24.90;50.90;;;;;;5052067;28;20044;-62
2022/10/31 07:43:35;;;;;;;33.10;27.15;;;25.40;50.30;;;;;;5050510;28;20506;-64
2022/10/31 07:46:00;;;;;;;29.15;25.40;;;25.80;49.50;;;;;;5045314;28;20029;-64
2022/10/31 07:48:26;;;;;;;29.27;24.25;;;25.90;48.30;;;;;;5033420;28;20029;-64
2022/10/31 07:50:52;;;;;;;26.20;23.35;;;26.00;48.00;;;;;;5031634;28;20022;-64
2022/10/31 07:53:17;;;;;;;25.85;23.17;;;26.10;47.70;;;;;;5047565;28;20025;-62
2022/10/31 07:55:43;;;;;;;26.17;23.42;;;26.10;48.70;;;;;;5051182;28;20029;-63
2022/10/31 07:58:16;;;;;;;30.58;26.10;;;25.90;47.80;;;;;;5050745;28;20017;-63
2022/10/31 08:00:43;;;;;;;;;;;26.20;48.00;;;;;;5047562;28;20033;-65
2022/10/31 08:03:21;;;;;;;34.53;28.95;;;26.50;47.40;;;;;;5046379;28;20466;-64
2022/10/31 08:05:47;;;;;;;31.52;28.15;;;26.30;47.30;;;;;;5046317;28;20132;-64
2022/10/31 08:08:14;;;;;;;30.23;27.05;;;26.50;47.20;;;;;;5045223;28;20108;-65
2022/10/31 08:10:50;;;;;;;33.45;30.02;;;27.00;46.90;;;;;;5045950;28;20492;-66
2022/10/31 08:13:18;;;;;;;32.60;29.20;;;27.10;46.10;;;;;;5047139;28;20029;-64
2022/10/31 08:15:50;;;;;;;31.83;28.42;;;27.30;45.90;;;;;;5047378;28;20033;-64
2022/10/31 08:18:16;;;;;;;28.38;25.42;;;26.80;45.90;;;;;;5049213;28;20021;-66
2022/10/31 08:20:46;;;;;;;24.27;21.77;;;26.20;47.30;;;;;;5049576;28;20021;-64
2022/10/31 08:23:12;;;;;;;23.80;20.73;;;25.40;46.90;;;;;;5050317;28;20021;-65
2022/10/31 08:25:43;;;;;;;24.27;21.73;;;24.60;48.70;;;;;;5050224;28;20025;-64
2022/10/31 08:28:11;;;;;;;23.38;19.98;;;24.10;49.90;;;;;;5053223;28;20484;-64
2022/10/31 08:30:47;;;;;;;26.58;22.00;;;23.80;50.70;;;;;;5053084;28;20068;-62
2022/10/31 08:33:16;;;;;;;20.77;18.48;;;23.80;50.30;;;;;;5052064;28;20021;-68
2022/10/31 08:35:49;;;;;;;21.45;19.00;;;22.90;52.80;;;;;;5052492;28;20079;-65
2022/10/31 08:38:15;;;;;;;21.60;19.35;;;22.50;53.40;;;;;;5050779;28;20025;-65
2022/10/31 08:40:49;;;;;;;26.20;23.35;;;22.40;53.70;;;;;;5054145;28;20033;-64
2022/10/31 08:43:16;;;;;;;29.63;24.10;;;22.10;54.30;;;;;;5053473;28;20033;-62
2022/10/31 08:45:48;;;;;;;37.53;30.45;;;21.80;55.10;;;;;;5052538;28;20443;-62
2022/10/31 08:48:16;;;;;;;33.33;27.42;;;21.90;55.40;;;;;;5052637;28;20439;-63
2022/10/31 08:50:46;;;;;;;37.95;31.88;;;21.80;55.50;;;;;;5051996;28;20029;-63
2022/10/31 08:53:13;;;;;;;40.38;33.22;;;21.70;56.30;;;;;;5049308;28;20021;-63
2022/10/31 08:55:40;;;;;;;40.60;34.22;;;21.70;56.50;;;;;;5054348;28;20040;-64
2022/10/31 08:58:12;;;;;;;37.05;31.33;;;21.90;56.80;;;;;;5053769;28;20025;-63
2022/10/31 09:00:38;;;;;;;38.45;32.42;;;22.00;56.20;;;;;;5053793;28;20094;-63
2022/10/31 09:03:09;;;;;;;41.13;31.55;;;22.20;56.00;;;;;;5068366;28;20036;-65
2022/10/31 09:05:39;;;;;;;37.60;30.80;;;22.20;55.70;;;;;;5050817;28;20463;-64
2022/10/31 09:08:06;;;;;;;36.58;31.73;;;22.10;58.60;;;;;;5052016;28;20028;-64
2022/10/31 09:10:37;;;;;;;35.67;31.13;;;22.10;57.80;;;;;;5051574;28;20052;-63
2022/10/31 09:13:11;;;;;;;38.03;31.08;;;22.10;59.50;;;;;;5051668;28;20154;-64
2022/10/31 09:15:39;;;;;;;32.30;28.48;;;22.30;58.50;;;;;;5048006;28;20475;-65
2022/10/31 09:18:06;;;;;;;31.40;27.60;;;22.60;57.40;;;;;;5050124;28;20085;-64
2022/10/31 09:20:33;;;;;;;33.28;28.00;;;23.00;56.20;;;;;;5053170;28;20387;-63
2022/10/31 09:23:02;;;;;;;34.80;28.83;;;23.20;55.90;;;;;;5052902;28;20029;-65
2022/10/31 09:25:29;;;;;;;36.15;31.30;;;23.60;55.40;;;;;;5051588;28;20033;-63
2022/10/31 09:27:57;;;;;;;32.40;28.95;;;23.60;54.80;;;;;;5051158;28;20029;-64
2022/10/31 09:30:23;;;;;;;30.10;26.95;;;23.90;54.60;;;;;;5053016;28;20044;-64
2022/10/31 09:32:54;;;;;;;31.73;27.88;;;24.30;53.40;;;;;;5050920;28;20021;-64
2022/10/31 09:35:19;;;;;;;30.45;25.33;;;24.70;52.70;;;;;;5053957;28;20100;-63
2022/10/31 09:37:45;;;;;;;34.85;28.83;;;24.90;51.90;;;;;;5052324;28;20111;-62
2022/10/31 09:40:11;;;;;;;28.63;25.52;;;25.00;50.70;;;;;;5051249;28;20441;-64
2022/10/31 09:43:12;;;;;;;28.27;25.38;;;25.10;51.70;;;;;;5047222;28;20060;-64
2022/10/31 09:46:09;;;;;;;29.08;26.02;;;25.30;50.60;;;;;;5005937;28;20572;-64
2022/10/31 09:48:35;;;;;;;30.67;25.67;;;25.60;50.70;;;;;;5048842;28;20029;-63
2022/10/31 09:51:11;;;;;;;31.85;28.45;;;26.00;50.00;;;;;;5049708;28;20075;-63
2022/10/31 09:53:43;;;;;;;30.92;27.83;;;26.20;49.00;;;;;;5047549;28;20384;-63
2022/10/31 09:56:18;;;;;;;31.17;27.80;;;26.50;49.00;;;;;;5049675;28;20013;-62
2022/10/31 09:58:47;;;;;;;29.65;26.65;;;26.70;47.20;;;;;;5050514;28;20082;-62
2022/10/31 10:01:35;;;;;;;30.70;27.50;;;26.90;46.50;;;;;;5049988;28;20033;-64
2022/10/31 10:04:32;;;;;;;28.70;25.48;;;27.10;46.10;;;;;;5050733;28;20028;-64
2022/10/31 10:06:59;;;;;;;24.95;22.35;;;27.40;44.00;;;;;;5035915;28;20025;-63
2022/10/31 10:09:26;;;;;;;26.65;21.63;;;27.60;44.20;;;;;;5046576;28;20605;-62
2022/10/31 10:12:07;;;;;;;26.85;22.98;;;27.80;43.70;;;;;;5051112;28;20013;-63
2022/10/31 10:14:55;;;;;;;27.60;24.73;;;27.90;44.30;;;;;;5053010;28;20027;-62
2022/10/31 10:17:26;;;;;;;26.88;24.05;;;27.90;43.20;;;;;;5039508;28;20442;-64
2022/10/31 10:20:17;;;;;;;22.50;20.20;;;28.10;41.90;;;;;;5052530;28;20028;-62
2022/10/31 10:22:46;;;;;;;16.90;15.18;;;28.10;41.90;;;;;;5053244;28;20025;-64
2022/10/31 10:25:39;;;;;;;18.02;16.23;;;28.30;42.20;;;;;;5053674;28;20456;-63
2022/10/31 10:28:21;;;;;;;15.13;13.52;;;28.30;42.80;;;;;;5053290;28;20422;-63
2022/10/31 10:30:50;;;;;;;14.57;13.18;;;28.50;42.60;;;;;;5051834;28;20538;-64
2022/10/31 10:33:31;;;;;;;13.20;11.90;;;28.80;43.20;;;;;;5051351;28;20025;-62
2022/10/31 10:36:05;;;;;;;11.77;10.63;;;28.90;41.50;;;;;;5050923;28;20024;-62
2022/10/31 10:38:57;;;;;;;10.90;9.75;;;29.10;40.60;;;;;;5041809;28;20108;-60
2022/10/31 10:41:27;;;;;;;9.93;8.90;;;29.20;39.90;;;;;;5050499;28;20555;-60
2022/10/31 10:43:55;;;;;;;9.80;8.80;;;29.40;40.70;;;;;;5048585;28;20036;-63
2022/10/31 10:49:24;;;;;;;9.23;8.25;;;29.70;40.20;;;;;;5051220;28;20035;-62
2022/10/31 10:52:00;;;;;;;8.88;7.97;;;29.80;40.40;;;;;;5052169;28;20025;-62
2022/10/31 10:54:44;;;;;;;8.52;7.72;;;29.90;39.10;;;;;;5053532;28;20025;-62
2022/10/31 10:57:22;;;;;;;9.45;8.55;;;30.20;37.60;;;;;;5046091;28;20483;-62
2022/10/31 10:59:48;;;;;;;9.38;8.40;;;30.30;38.70;;;;;;5050489;28;20510;-62
2022/10/31 11:02:22;;;;;;;9.98;9.07;;;30.50;38.90;;;;;;5051827;28;20059;-63
2022/10/31 11:04:51;;;;;;;10.60;9.55;;;30.60;38.00;;;;;;5051183;28;20463;-61
2022/10/31 11:07:18;;;;;;;11.85;10.65;;;30.60;38.30;;;;;;5050262;28;20017;-62
2022/10/31 11:09:43;;;;;;;11.50;10.32;;;30.70;39.10;;;;;;5048038;28;20605;-59
2022/10/31 11:12:30;;;;;;;11.63;10.45;;;30.70;39.40;;;;;;5047228;28;20115;-60
2022/10/31 11:15:00;;;;;;;11.82;10.70;;;30.80;38.30;;;;;;5049829;28;20017;-61
2022/10/31 11:17:28;;;;;;;11.38;9.88;;;30.90;38.00;;;;;;5050105;28;20016;-60
2022/10/31 11:20:20;;;;;;;12.40;10.98;;;31.00;39.80;;;;;;5050084;28;20027;-61
2022/10/31 11:22:48;;;;;;;13.73;12.40;;;30.90;37.30;;;;;;5051161;28;20379;-61
2022/10/31 11:25:19;;;;;;;15.82;14.23;;;30.90;38.80;;;;;;5051650;28;20024;-60
2022/10/31 11:27:45;;;;;;;13.02;11.02;;;31.20;40.60;;;;;;5050901;28;20387;-61
2022/10/31 11:30:13;;;;;;;12.15;10.95;;;31.30;39.90;;;;;;5051101;28;20056;-62
2022/10/31 11:32:50;;;;;;;12.13;10.85;;;31.50;40.30;;;;;;5051412;28;20116;-63
2022/10/31 11:35:18;;;;;;;11.35;10.15;;;31.60;35.10;;;;;;5048041;28;20120;-62
2022/10/31 11:37:46;;;;;;;10.38;9.10;;;31.50;37.80;;;;;;5051267;28;20018;-61
2022/10/31 11:40:20;;;;;;;11.70;10.50;;;31.70;35.80;;;;;;5049295;28;20037;-62
2022/10/31 11:42:47;;;;;;;10.23;9.15;;;31.80;35.40;;;;;;5049515;28;20029;-62
2022/10/31 11:45:18;;;;;;;10.75;9.68;;;31.90;35.20;;;;;;5050957;28;20017;-60
2022/10/31 11:47:50;;;;;;;13.18;11.00;;;32.10;36.30;;;;;;5050705;28;20087;-61
2022/10/31 11:50:23;;;;;;;11.85;10.65;;;32.30;36.40;;;;;;5048833;28;20122;-61
2022/10/31 11:52:50;;;;;;;12.98;11.57;;;32.30;35.90;;;;;;5047922;28;20038;-61
2022/10/31 11:55:30;;;;;;;13.20;11.80;;;32.40;34.80;;;;;;5049293;28;20112;-60
2022/10/31 11:57:57;;;;;;;15.15;12.73;;;32.30;37.60;;;;;;5048639;28;20094;-62
2022/10/31 12:00:25;;;;;;;15.02;13.40;;;32.20;36.90;;;;;;5048565;28;20051;-61
2022/10/31 12:03:04;;;;;;;15.73;13.93;;;31.90;37.70;;;;;;5053457;28;20471;-62
2022/10/31 12:05:32;;;;;;;17.20;13.68;;;31.70;36.60;;;;;;5054496;28;20032;-60
2022/10/31 12:07:59;;;;;;;19.42;14.93;;;31.40;36.50;;;;;;5054775;28;20104;-60
2022/10/31 12:10:31;;;;;;;18.27;14.55;;;31.10;37.00;;;;;;5056485;28;20036;-60
2022/10/31 12:13:31;;;;;;;21.77;15.38;;;30.70;36.40;;;;;;5055961;28;20028;-61
2022/10/31 12:16:21;;;;;;;20.48;13.32;;;30.50;37.10;;;;;;5056285;28;20487;-61
2022/10/31 12:18:58;;;;;;;17.58;14.05;;;30.30;36.90;;;;;;5055455;28;20483;-61
2022/10/31 12:21:39;;;;;;;18.05;13.15;;;30.20;37.90;;;;;;5056300;28;20060;-61
2022/10/31 12:24:18;;;;;;;17.20;12.07;;;29.90;37.30;;;;;;5055678;28;20068;-61
2022/10/31 12:26:55;;;;;;;15.50;11.95;;;29.80;37.60;;;;;;5055506;28;20028;-61
2022/10/31 12:29:24;;;;;;;17.33;12.35;;;29.80;35.90;;;;;;5054683;28;20547;-61
2022/10/31 12:32:17;;;;;;;16.85;12.05;;;29.80;37.60;;;;;;5054738;28;20503;-61
2022/10/31 12:34:48;;;;;;;;;;;29.60;38.00;;;;;;5056473;28;20525;-61
2022/10/31 12:37:35;;;;;;;18.60;14.15;;;29.50;38.30;;;;;;5054468;28;19920;-61
2022/10/31 12:40:25;;;;;;;20.00;15.75;;;29.20;38.80;;;;;;5053783;28;20033;-61
2022/10/31 12:43:10;;;;;;;23.08;15.23;;;29.00;39.20;;;;;;5054771;28;20014;-61
2022/10/31 12:46:14;;;;;;;24.65;16.75;;;28.90;39.90;;;;;;5054981;28;20021;-61
2022/10/31 12:48:57;;;;;;;24.25;18.35;;;28.70;40.20;;;;;;5053720;28;20048;-61
2022/10/31 12:51:42;;;;;;;21.88;16.83;;;28.50;40.60;;;;;;5053536;28;20052;-61
2022/10/31 12:54:08;;;;;;;29.08;20.05;;;28.40;41.90;;;;;;5055158;28;20382;-61